createdAt,value
2023-11-24T00:00:18.076Z,72
2023-11-24T00:01:24.692Z,72
2023-11-24T00:02:32.075Z,72
2023-11-24T00:03:39.051Z,71
2023-11-24T00:05:53.131Z,71
2023-11-24T00:06:59.665Z,71
2023-11-24T00:08:06.794Z,71
2023-11-24T00:09:13.905Z,71
2023-11-24T00:10:21.099Z,71
2023-11-24T00:11:28.088Z,70
2023-11-24T00:12:34.773Z,70
2023-11-24T00:13:42.350Z,70
2023-11-24T00:14:48.933Z,70
2023-11-24T00:15:56.066Z,70
2023-11-24T00:17:03.111Z,70
2023-11-24T00:18:09.749Z,70
2023-11-24T00:19:16.834Z,69
2023-11-24T00:20:23.933Z,69
2023-11-24T00:21:31.064Z,69
2023-11-24T00:22:37.558Z,68
2023-11-24T00:23:44.783Z,68
2023-11-24T00:24:51.879Z,68
2023-11-24T00:25:58.898Z,68
2023-11-24T00:27:05.990Z,68
2023-11-24T00:28:12.601Z,68
2023-11-24T00:29:19.667Z,68
2023-11-24T00:30:26.843Z,68
2023-11-24T00:31:33.918Z,68
2023-11-24T00:32:41.184Z,68
2023-11-24T00:33:47.668Z,68
2023-11-24T00:34:54.712Z,67
2023-11-24T00:36:01.795Z,67
2023-11-24T00:37:08.893Z,67
2023-11-24T00:38:16.067Z,67
2023-11-24T00:39:24.187Z,67
2023-11-24T00:40:29.749Z,68
2023-11-24T00:41:36.849Z,68
2023-11-24T00:42:43.964Z,68
2023-11-24T00:43:51.022Z,68
2023-11-24T00:44:57.608Z,68
2023-11-24T00:46:04.761Z,68
2023-11-24T00:47:11.955Z,68
2023-11-24T00:48:19.005Z,68
2023-11-24T00:49:26.069Z,68
2023-11-24T00:50:32.626Z,68
2023-11-24T00:51:39.961Z,69
2023-11-24T00:52:46.970Z,69
2023-11-24T00:53:53.982Z,69
2023-11-24T00:55:01.542Z,69
2023-11-24T00:56:07.595Z,69
2023-11-24T00:57:14.779Z,69
2023-11-24T00:59:28.948Z,70
2023-11-24T01:00:36.061Z,70
2023-11-24T01:01:42.731Z,70
2023-11-24T01:02:50.557Z,70
2023-11-24T01:03:56.936Z,70
2023-11-24T01:05:04.010Z,70
2023-11-24T01:06:11.068Z,71
2023-11-24T01:07:17.637Z,71
2023-11-24T01:08:24.799Z,71
2023-11-24T01:09:31.890Z,71
2023-11-24T01:10:38.997Z,71
2023-11-24T01:11:46.160Z,71
2023-11-24T01:12:52.788Z,71
2023-11-24T01:13:59.818Z,71
2023-11-24T01:15:06.876Z,71
2023-11-24T01:16:14.001Z,71
2023-11-24T01:17:21.671Z,71
2023-11-24T01:18:28.208Z,71
2023-11-24T01:19:34.873Z,71
2023-11-24T01:20:41.880Z,71
2023-11-24T01:21:49.107Z,71
2023-11-24T01:22:56.132Z,71
2023-11-24T01:24:02.737Z,71
2023-11-24T01:25:10.578Z,71
2023-11-24T01:26:16.918Z,72
2023-11-24T01:27:24.053Z,72
2023-11-24T01:28:31.083Z,72
2023-11-24T01:29:37.668Z,72
2023-11-24T01:30:44.878Z,72
2023-11-24T01:31:51.935Z,72
2023-11-24T01:34:06.248Z,72
2023-11-24T01:35:12.679Z,71
2023-11-24T01:36:19.809Z,71
2023-11-24T01:37:26.984Z,71
2023-11-24T01:38:34.016Z,71
2023-11-24T01:39:41.156Z,71
2023-11-24T01:40:47.643Z,71
2023-11-24T01:41:54.800Z,71
2023-11-24T01:43:01.996Z,71
2023-11-24T01:44:08.993Z,71
2023-11-24T01:45:16.121Z,71
2023-11-24T01:46:22.790Z,71
2023-11-24T01:47:29.770Z,71
2023-11-24T01:48:36.920Z,70
2023-11-24T01:49:44.057Z,70
2023-11-24T01:50:51.092Z,70
2023-11-24T01:51:57.772Z,70
2023-11-24T01:53:04.800Z,70
2023-11-24T01:54:11.948Z,70
2023-11-24T01:55:19.027Z,70
2023-11-24T01:56:26.193Z,70
2023-11-24T01:57:32.718Z,70
2023-11-24T01:58:39.808Z,70
2023-11-24T01:59:46.938Z,70
2023-11-24T02:00:54.090Z,69
2023-11-24T02:03:07.914Z,69
2023-11-24T02:04:14.869Z,69
2023-11-24T02:05:21.932Z,69
2023-11-24T02:06:29.042Z,69
2023-11-24T02:07:35.680Z,69
2023-11-24T02:08:42.752Z,69
2023-11-24T02:09:50.401Z,69
2023-11-24T02:10:56.938Z,68
2023-11-24T02:12:04.047Z,68
2023-11-24T02:13:10.611Z,68
2023-11-24T02:14:17.792Z,68
2023-11-24T02:15:24.888Z,68
2023-11-24T02:16:31.968Z,67
2023-11-24T02:17:39.181Z,67
2023-11-24T02:18:46.221Z,67
2023-11-24T02:19:52.826Z,67
2023-11-24T02:21:00.374Z,67
2023-11-24T02:22:06.937Z,67
2023-11-24T02:23:14.044Z,67
2023-11-24T02:24:20.624Z,67
2023-11-24T02:25:27.835Z,67
2023-11-24T02:26:34.893Z,67
2023-11-24T02:27:41.982Z,67
2023-11-24T02:28:49.081Z,67
2023-11-24T02:29:55.672Z,67
2023-11-24T02:31:02.974Z,67
2023-11-24T02:32:09.828Z,67
2023-11-24T02:33:16.964Z,67
2023-11-24T02:34:24.151Z,67
2023-11-24T02:35:30.725Z,67
2023-11-24T02:36:37.832Z,67
2023-11-24T02:37:44.882Z,67
2023-11-24T02:38:53.273Z,67
2023-11-24T02:39:59.190Z,67
2023-11-24T02:41:05.715Z,67
2023-11-24T02:42:12.776Z,67
2023-11-24T02:43:19.867Z,67
2023-11-24T02:44:26.989Z,66
2023-11-24T02:45:34.126Z,66
2023-11-24T02:46:40.699Z,66
2023-11-24T02:47:47.882Z,66
2023-11-24T02:48:54.993Z,66
2023-11-24T02:50:01.965Z,66
2023-11-24T02:51:09.133Z,66
2023-11-24T02:52:15.729Z,66
2023-11-24T02:53:22.817Z,66
2023-11-24T02:54:29.965Z,66
2023-11-24T02:55:37.018Z,66
2023-11-24T02:56:44.122Z,66
2023-11-24T02:57:50.818Z,66
2023-11-24T02:58:57.811Z,66
2023-11-24T03:00:04.968Z,66
2023-11-24T03:02:19.273Z,67
2023-11-24T03:03:25.752Z,67
2023-11-24T03:04:32.940Z,67
2023-11-24T03:06:47.183Z,68
2023-11-24T03:07:54.155Z,68
2023-11-24T03:09:00.688Z,68
2023-11-24T03:10:07.822Z,68
2023-11-24T03:11:14.921Z,68
2023-11-24T03:12:22.032Z,68
2023-11-24T03:13:29.110Z,69
2023-11-24T03:14:35.809Z,69
2023-11-24T03:15:43.010Z,69
2023-11-24T03:16:50.008Z,69
2023-11-24T03:17:57.226Z,69
2023-11-24T03:19:04.215Z,69
2023-11-24T03:20:10.689Z,69
2023-11-24T03:21:17.845Z,69
2023-11-24T03:22:24.949Z,69
2023-11-24T03:23:32.011Z,69
2023-11-24T03:24:39.161Z,69
2023-11-24T03:25:45.829Z,69
2023-11-24T03:26:52.955Z,69
2023-11-24T03:27:59.942Z,69
2023-11-24T03:29:07.216Z,70
2023-11-24T03:30:14.219Z,70
2023-11-24T03:31:20.727Z,70
2023-11-24T03:32:28.182Z,70
2023-11-24T03:33:35.027Z,71
2023-11-24T03:34:42.107Z,71
2023-11-24T03:35:49.126Z,71
2023-11-24T03:36:55.833Z,71
2023-11-24T03:38:03.417Z,71
2023-11-24T03:39:09.945Z,71
2023-11-24T03:40:17.138Z,71
2023-11-24T03:41:24.155Z,71
2023-11-24T03:42:30.802Z,72
2023-11-24T03:43:37.888Z,72
2023-11-24T03:44:45.049Z,72
2023-11-24T03:45:52.089Z,72
2023-11-24T03:46:59.176Z,72
2023-11-24T03:48:05.845Z,72
2023-11-24T03:49:13.006Z,72
2023-11-24T03:50:19.991Z,72
2023-11-24T03:51:27.221Z,72
2023-11-24T03:52:33.677Z,72
2023-11-24T03:53:40.804Z,72
2023-11-24T03:54:47.956Z,72
2023-11-24T03:55:54.988Z,72
2023-11-24T03:57:02.109Z,72
2023-11-24T03:58:09.209Z,71
2023-11-24T03:59:15.765Z,71
2023-11-24T04:00:22.985Z,71
2023-11-24T04:01:30.076Z,71
2023-11-24T04:02:37.240Z,71
2023-11-24T04:03:44.248Z,71
2023-11-24T04:04:50.789Z,71
2023-11-24T04:05:57.850Z,71
2023-11-24T04:07:05.098Z,71
2023-11-24T04:08:12.217Z,71
2023-11-24T04:10:27.344Z,71
2023-11-24T04:11:35.040Z,71
2023-11-24T04:12:40.023Z,71
2023-11-24T04:13:47.163Z,71
2023-11-24T04:14:53.720Z,71
2023-11-24T04:16:00.879Z,71
2023-11-24T04:17:08.204Z,71
2023-11-24T04:18:15.033Z,71
2023-11-24T04:19:22.117Z,71
2023-11-24T04:20:28.720Z,71
2023-11-24T04:21:35.846Z,71
2023-11-24T04:22:43.186Z,71
2023-11-24T04:23:50.039Z,71
2023-11-24T04:24:57.350Z,71
2023-11-24T04:26:04.250Z,71
2023-11-24T04:27:10.773Z,71
2023-11-24T04:28:18.559Z,71
2023-11-24T04:30:32.148Z,71
2023-11-24T04:31:38.719Z,71
2023-11-24T04:32:45.882Z,71
2023-11-24T04:33:53.463Z,71
2023-11-24T04:35:00.058Z,72
2023-11-24T04:36:07.287Z,72
2023-11-24T04:37:13.681Z,72
2023-11-24T04:38:20.789Z,72
2023-11-24T04:39:27.996Z,72
2023-11-24T04:40:35.120Z,72
2023-11-24T04:41:44.743Z,73
2023-11-24T04:42:48.753Z,73
2023-11-24T04:43:55.845Z,73
2023-11-24T04:45:02.985Z,73
2023-11-24T04:46:10.070Z,73
2023-11-24T04:47:17.166Z,73
2023-11-24T04:48:23.761Z,73
2023-11-24T04:49:30.853Z,73
2023-11-24T04:50:38.294Z,73
2023-11-24T04:51:45.125Z,73
2023-11-24T04:52:52.182Z,73
2023-11-24T04:53:58.729Z,73
2023-11-24T04:55:05.861Z,73
2023-11-24T04:56:12.972Z,73
2023-11-24T04:57:20.021Z,73
2023-11-24T04:58:27.195Z,73
2023-11-24T04:59:33.880Z,73
2023-11-24T05:00:40.861Z,73
2023-11-24T05:01:47.998Z,73
2023-11-24T05:02:55.105Z,73
2023-11-24T05:04:02.266Z,73
2023-11-24T05:05:08.737Z,72
2023-11-24T05:06:16.376Z,72
2023-11-24T05:07:22.988Z,72
2023-11-24T05:08:30.057Z,72
2023-11-24T05:09:37.450Z,72
2023-11-24T05:10:43.799Z,72
2023-11-24T05:11:50.850Z,72
2023-11-24T05:14:05.093Z,72
2023-11-24T05:15:12.157Z,72
2023-11-24T05:16:18.908Z,72
2023-11-24T05:17:25.879Z,72
2023-11-24T05:18:33.029Z,72
2023-11-24T05:19:40.093Z,72
2023-11-24T05:20:47.198Z,72
2023-11-24T05:21:53.813Z,72
2023-11-24T05:23:00.869Z,72
2023-11-24T05:24:07.969Z,72
2023-11-24T05:25:15.121Z,72
2023-11-24T05:26:22.261Z,72
2023-11-24T05:27:28.821Z,72
2023-11-24T05:28:35.938Z,72
2023-11-24T05:29:43.069Z,72
2023-11-24T05:30:50.128Z,71
2023-11-24T05:31:57.347Z,71
2023-11-24T05:33:03.892Z,71
2023-11-24T05:34:10.961Z,71
2023-11-24T05:35:17.988Z,71
2023-11-24T05:36:25.189Z,71
2023-11-24T05:37:32.319Z,71
2023-11-24T05:38:38.787Z,71
2023-11-24T05:39:45.955Z,71
2023-11-24T05:40:53.037Z,71
2023-11-24T05:42:00.108Z,71
2023-11-24T05:43:07.400Z,71
2023-11-24T05:44:13.822Z,72
2023-11-24T05:45:20.947Z,72
2023-11-24T05:46:28.125Z,72
2023-11-24T05:47:35.171Z,72
2023-11-24T05:48:42.938Z,72
2023-11-24T05:49:48.780Z,72
2023-11-24T05:50:55.946Z,72
2023-11-24T05:52:03.023Z,72
2023-11-24T05:53:10.138Z,72
2023-11-24T05:54:17.363Z,72
2023-11-24T05:55:23.814Z,72
2023-11-24T05:56:30.949Z,72
2023-11-24T05:58:45.231Z,72
2023-11-24T05:59:52.372Z,72
2023-11-24T06:00:58.893Z,72
2023-11-24T06:02:05.956Z,72
2023-11-24T06:03:13.082Z,72
2023-11-24T06:04:20.309Z,72
2023-11-24T06:05:27.406Z,72
2023-11-24T06:06:33.885Z,72
2023-11-24T06:07:40.934Z,72
2023-11-24T06:08:48.032Z,72
2023-11-24T06:09:55.237Z,71
2023-11-24T06:11:02.424Z,71
2023-11-24T06:12:08.830Z,71
2023-11-24T06:13:16.009Z,71
2023-11-24T06:14:23.049Z,71
2023-11-24T06:15:30.266Z,71
2023-11-24T06:17:44.003Z,71
2023-11-24T06:18:53.385Z,70
2023-11-24T06:19:58.079Z,70
2023-11-24T06:21:05.201Z,70
2023-11-24T06:22:12.337Z,70
2023-11-24T06:23:18.967Z,70
2023-11-24T06:24:25.967Z,70
2023-11-24T06:25:33.080Z,70
2023-11-24T06:26:40.225Z,70
2023-11-24T06:27:46.819Z,70
2023-11-24T06:28:53.869Z,70
2023-11-24T06:30:01.005Z,70
2023-11-24T06:31:08.520Z,70
2023-11-24T06:32:15.229Z,70
2023-11-24T06:33:21.775Z,70
2023-11-24T06:34:29.494Z,69
2023-11-24T06:35:36.526Z,69
2023-11-24T06:36:43.757Z,70
2023-11-24T06:37:50.178Z,70
2023-11-24T06:38:56.826Z,70
2023-11-24T06:40:03.989Z,70
2023-11-24T06:41:10.984Z,70
2023-11-24T06:42:18.194Z,70
2023-11-24T06:43:25.228Z,70
2023-11-24T06:44:31.803Z,70
2023-11-24T06:45:38.926Z,70
2023-11-24T06:46:46.048Z,70
2023-11-24T06:47:53.184Z,70
2023-11-24T06:49:00.276Z,70
2023-11-24T06:50:06.832Z,70
2023-11-24T06:51:13.929Z,70
2023-11-24T06:52:21.019Z,70
2023-11-24T06:53:28.242Z,70
2023-11-24T06:54:35.273Z,70
2023-11-24T06:55:41.862Z,71
2023-11-24T06:56:48.928Z,71
2023-11-24T06:57:56.050Z,70
2023-11-24T06:59:03.184Z,71
2023-11-24T07:00:10.290Z,71
2023-11-24T07:01:16.901Z,70
2023-11-24T07:02:23.985Z,70
2023-11-24T07:03:31.098Z,70
2023-11-24T07:04:38.301Z,70
2023-11-24T07:05:45.231Z,70
2023-11-24T07:06:51.939Z,70
2023-11-24T07:07:58.908Z,70
2023-11-24T07:09:06.109Z,70
2023-11-24T07:10:13.317Z,70
2023-11-24T07:11:20.245Z,70
2023-11-24T07:12:27.014Z,70
2023-11-24T07:13:33.977Z,69
2023-11-24T07:14:41.021Z,69
2023-11-24T07:15:48.394Z,69
2023-11-24T07:16:55.363Z,69
2023-11-24T07:18:01.927Z,69
2023-11-24T07:19:09.028Z,69
2023-11-24T07:20:16.069Z,69
2023-11-24T07:21:23.186Z,69
2023-11-24T07:22:30.415Z,69
2023-11-24T07:23:36.832Z,69
2023-11-24T07:24:44.295Z,69
2023-11-24T07:26:58.151Z,69
2023-11-24T07:28:05.356Z,69
2023-11-24T07:29:11.896Z,69
2023-11-24T07:30:18.955Z,69
2023-11-24T07:31:26.089Z,69
2023-11-24T07:32:33.209Z,69
2023-11-24T07:33:40.862Z,69
2023-11-24T07:34:46.966Z,70
2023-11-24T07:35:53.980Z,70
2023-11-24T07:37:01.073Z,70
2023-11-24T07:38:08.154Z,70
2023-11-24T07:39:15.429Z,70
2023-11-24T07:40:22.008Z,70
2023-11-24T07:41:29.051Z,70
2023-11-24T07:42:36.093Z,71
2023-11-24T07:43:43.244Z,71
2023-11-24T07:44:50.371Z,71
2023-11-24T07:45:56.941Z,71
2023-11-24T07:47:04.060Z,71
2023-11-24T07:48:11.174Z,71
2023-11-24T07:49:18.217Z,71
2023-11-24T07:50:25.368Z,72
2023-11-24T07:51:31.901Z,72
2023-11-24T07:52:38.977Z,72
2023-11-24T07:53:46.098Z,72
2023-11-24T07:54:53.320Z,72
2023-11-24T07:56:00.334Z,72
2023-11-24T07:57:06.951Z,72
2023-11-24T07:58:14.083Z,72
2023-11-24T07:59:21.119Z,72
2023-11-24T08:00:28.215Z,72
2023-11-24T08:01:35.428Z,72
2023-11-24T08:02:42.519Z,72
2023-11-24T08:03:49.084Z,72
2023-11-24T08:04:56.139Z,72
2023-11-24T08:06:03.241Z,72
2023-11-24T08:07:09.842Z,72
2023-11-24T08:08:16.937Z,72
2023-11-24T08:09:24.024Z,72
2023-11-24T08:10:31.102Z,72
2023-11-24T08:11:38.876Z,72
2023-11-24T08:12:45.712Z,72
2023-11-24T08:13:51.964Z,72
2023-11-24T08:14:58.979Z,72
2023-11-24T08:16:06.237Z,72
2023-11-24T08:17:13.336Z,72
2023-11-24T08:18:19.798Z,72
2023-11-24T08:19:26.965Z,72
2023-11-24T08:20:34.070Z,72
2023-11-24T08:21:41.132Z,73
2023-11-24T08:22:48.355Z,73
2023-11-24T08:23:54.866Z,73
2023-11-24T08:25:01.992Z,73
2023-11-24T08:26:10.649Z,73
2023-11-24T08:27:16.183Z,73
2023-11-24T08:28:23.299Z,74
2023-11-24T08:29:29.833Z,74
2023-11-24T08:30:36.997Z,74
2023-11-24T08:31:44.035Z,74
2023-11-24T08:32:51.155Z,74
2023-11-24T08:33:58.411Z,74
2023-11-24T08:35:04.915Z,74
2023-11-24T08:36:11.957Z,74
2023-11-24T08:37:19.074Z,74
2023-11-24T08:38:26.205Z,74
2023-11-24T08:39:33.317Z,74
2023-11-24T08:40:39.843Z,75
2023-11-24T08:41:46.993Z,75
2023-11-24T08:44:01.205Z,75
2023-11-24T08:45:08.581Z,75
2023-11-24T08:46:14.989Z,75
2023-11-24T08:47:21.984Z,75
2023-11-24T08:48:29.055Z,75
2023-11-24T08:49:36.149Z,75
2023-11-24T08:50:43.505Z,75
2023-11-24T08:51:49.925Z,75
2023-11-24T08:52:57.039Z,76
2023-11-24T08:55:11.302Z,76
2023-11-24T08:56:18.375Z,76
2023-11-24T08:57:24.888Z,76
2023-11-24T08:58:31.984Z,76
2023-11-24T08:59:39.267Z,76
2023-11-24T09:00:46.253Z,76
2023-11-24T09:01:53.459Z,76
2023-11-24T09:03:00.522Z,76
2023-11-24T09:04:07.093Z,76
2023-11-24T09:05:14.196Z,76
2023-11-24T09:06:21.212Z,76
2023-11-24T09:07:28.838Z,76
2023-11-24T09:08:34.910Z,76
2023-11-24T09:09:42.023Z,76
2023-11-24T09:10:49.083Z,76
2023-11-24T09:11:56.235Z,76
2023-11-24T09:13:04.485Z,76
2023-11-24T09:14:09.892Z,76
2023-11-24T09:15:17.084Z,76
2023-11-24T09:16:24.148Z,77
2023-11-24T09:17:31.244Z,77
2023-11-24T09:18:38.463Z,77
2023-11-24T09:19:44.925Z,77
2023-11-24T09:20:52.038Z,77
2023-11-24T09:21:59.173Z,77
2023-11-24T09:23:06.242Z,77
2023-11-24T09:24:14.035Z,77
2023-11-24T09:25:19.909Z,77
2023-11-24T09:26:27.031Z,77
2023-11-24T09:27:34.160Z,76
2023-11-24T09:28:41.244Z,77
2023-11-24T09:29:49.081Z,76
2023-11-24T09:30:55.576Z,76
2023-11-24T09:32:02.033Z,76
2023-11-24T09:33:09.235Z,76
2023-11-24T09:34:16.308Z,76
2023-11-24T09:35:23.481Z,77
2023-11-24T09:36:29.911Z,76
2023-11-24T09:37:37.042Z,76
2023-11-24T09:38:44.160Z,76
2023-11-24T09:39:51.288Z,76
2023-11-24T09:40:58.539Z,76
2023-11-24T09:42:04.933Z,76
2023-11-24T09:43:12.116Z,77
2023-11-24T09:44:19.178Z,77
2023-11-24T09:45:26.264Z,77
2023-11-24T09:47:40.811Z,76
2023-11-24T09:48:47.109Z,76
2023-11-24T09:49:54.216Z,76
2023-11-24T09:51:01.239Z,76
2023-11-24T09:52:08.544Z,76
2023-11-24T09:53:14.979Z,76
2023-11-24T09:54:22.042Z,76
2023-11-24T09:55:29.290Z,76
2023-11-24T09:56:36.249Z,76
2023-11-24T09:57:43.423Z,77
2023-11-24T09:58:49.922Z,77
2023-11-24T09:59:57.029Z,77
2023-11-24T10:01:04.207Z,77
2023-11-24T10:02:11.274Z,77
2023-11-24T10:03:18.462Z,77
2023-11-24T10:04:25.139Z,77
2023-11-24T10:05:32.392Z,77
2023-11-24T10:06:39.199Z,77
2023-11-24T10:07:46.278Z,78
2023-11-24T10:08:53.373Z,78
2023-11-24T10:09:59.978Z,78
2023-11-24T10:11:07.115Z,78
2023-11-24T10:12:14.182Z,78
2023-11-24T10:13:21.271Z,77
2023-11-24T10:14:28.556Z,77
2023-11-24T10:15:35.003Z,77
2023-11-24T10:16:42.824Z,77
2023-11-24T10:17:49.212Z,77
2023-11-24T10:18:56.296Z,77
2023-11-24T10:20:03.425Z,77
2023-11-24T10:21:19.840Z,77
2023-11-24T10:23:24.251Z,77
2023-11-24T10:24:31.299Z,78
2023-11-24T10:25:38.409Z,78
2023-11-24T10:26:45.241Z,78
2023-11-24T10:27:52.151Z,78
2023-11-24T10:28:59.228Z,78
2023-11-24T10:30:06.354Z,77
2023-11-24T10:31:13.429Z,78
2023-11-24T10:32:20.048Z,77
2023-11-24T10:33:35.196Z,77
2023-11-24T10:34:34.299Z,77
2023-11-24T10:35:41.310Z,77
2023-11-24T10:36:47.935Z,77
2023-11-24T10:37:55.064Z,77
2023-11-24T10:39:02.276Z,77
2023-11-24T10:40:09.235Z,77
2023-11-24T10:41:16.335Z,77
2023-11-24T10:42:23.293Z,77
2023-11-24T10:43:30.138Z,77
2023-11-24T10:44:37.139Z,77
2023-11-24T10:45:44.241Z,77
2023-11-24T10:46:51.347Z,77
2023-11-24T10:47:57.955Z,76
2023-11-24T10:49:05.193Z,76
2023-11-24T10:51:19.219Z,76
2023-11-24T10:52:26.335Z,76
2023-11-24T10:53:32.939Z,76
2023-11-24T10:54:41.039Z,76
2023-11-24T10:55:47.147Z,76
2023-11-24T10:56:54.280Z,76
2023-11-24T10:58:01.357Z,76
2023-11-24T10:59:08.443Z,76
2023-11-24T11:00:15.097Z,76
2023-11-24T11:01:22.227Z,76
2023-11-24T11:02:29.303Z,76
2023-11-24T11:03:36.421Z,76
2023-11-24T11:04:42.932Z,76
2023-11-24T11:05:50.559Z,76
2023-11-24T11:06:57.186Z,76
2023-11-24T11:08:04.301Z,76
2023-11-24T11:09:11.347Z,76
2023-11-24T11:10:17.960Z,76
2023-11-24T11:11:25.177Z,76
2023-11-24T11:12:32.449Z,76
2023-11-24T11:13:39.239Z,76
2023-11-24T11:14:46.397Z,76
2023-11-24T11:15:53.012Z,76
2023-11-24T11:17:00.070Z,75
2023-11-24T11:18:07.250Z,75
2023-11-24T11:19:14.321Z,75
2023-11-24T11:20:22.305Z,75
2023-11-24T11:21:27.959Z,75
2023-11-24T11:22:35.077Z,75
2023-11-24T11:23:42.186Z,75
2023-11-24T11:24:49.328Z,75
2023-11-24T11:25:56.402Z,75
2023-11-24T11:27:03.010Z,75
2023-11-24T11:28:10.089Z,75
2023-11-24T11:29:17.218Z,75
2023-11-24T11:30:24.277Z,75
2023-11-24T11:31:31.533Z,76
2023-11-24T11:32:37.989Z,75
2023-11-24T11:33:45.098Z,76
2023-11-24T11:34:52.173Z,76
2023-11-24T11:35:59.323Z,76
2023-11-24T11:37:06.570Z,76
2023-11-24T11:38:13.169Z,76
2023-11-24T11:39:20.110Z,76
2023-11-24T11:40:27.234Z,76
2023-11-24T11:41:34.323Z,76
2023-11-24T11:42:41.483Z,76
2023-11-24T11:43:47.953Z,76
2023-11-24T11:44:55.145Z,76
2023-11-24T11:46:02.224Z,76
2023-11-24T11:47:09.391Z,76
2023-11-24T11:48:16.701Z,76
2023-11-24T11:49:23.070Z,76
2023-11-24T11:51:37.257Z,76
2023-11-24T11:52:44.367Z,76
2023-11-24T11:54:58.630Z,76
2023-11-24T11:56:05.140Z,76
2023-11-24T11:57:12.517Z,76
2023-11-24T11:58:19.454Z,76
2023-11-24T11:59:25.947Z,76
2023-11-24T12:00:33.094Z,76
2023-11-24T12:01:40.240Z,76
2023-11-24T12:02:47.297Z,76
2023-11-24T12:03:54.463Z,76
2023-11-24T12:05:00.896Z,76
2023-11-24T12:06:08.077Z,76
2023-11-24T12:07:15.169Z,76
2023-11-24T12:08:22.269Z,76
2023-11-24T12:09:29.318Z,76
2023-11-24T12:10:35.950Z,76
2023-11-24T12:11:43.030Z,76
2023-11-24T12:12:50.372Z,76
2023-11-24T12:13:57.339Z,76
2023-11-24T12:15:04.381Z,76
2023-11-24T12:16:10.998Z,76
2023-11-24T12:17:18.068Z,76
2023-11-24T12:18:25.162Z,76
2023-11-24T12:19:32.289Z,76
2023-11-24T12:20:39.353Z,76
2023-11-24T12:21:45.947Z,76
2023-11-24T12:22:53.131Z,76
2023-11-24T12:24:14.585Z,76
2023-11-24T12:25:07.476Z,76
2023-11-24T12:26:14.403Z,76
2023-11-24T12:27:21.439Z,77
2023-11-24T12:28:28.132Z,77
2023-11-24T12:29:35.160Z,77
2023-11-24T12:30:42.810Z,77
2023-11-24T12:31:49.486Z,77
2023-11-24T12:32:56.054Z,77
2023-11-24T12:34:03.121Z,77
2023-11-24T12:35:10.132Z,77
2023-11-24T12:36:17.267Z,77
2023-11-24T12:37:24.614Z,77
2023-11-24T12:38:30.964Z,77
2023-11-24T12:39:38.052Z,77
2023-11-24T12:40:45.219Z,77
2023-11-24T12:41:52.299Z,77
2023-11-24T12:42:59.536Z,77
2023-11-24T12:44:06.014Z,77
2023-11-24T12:45:13.090Z,77
2023-11-24T12:46:20.338Z,77
2023-11-24T12:47:41.789Z,77
2023-11-24T12:48:35.155Z,77
2023-11-24T12:49:40.972Z,77
2023-11-24T12:50:48.090Z,77
2023-11-24T12:51:55.223Z,77
2023-11-24T12:53:02.333Z,77
2023-11-24T12:54:09.533Z,77
2023-11-24T12:55:16.646Z,77
2023-11-24T12:56:23.118Z,77
2023-11-24T12:58:37.307Z,77
2023-11-24T12:59:44.507Z,77
2023-11-24T13:00:51.069Z,77
2023-11-24T13:01:58.150Z,76
2023-11-24T13:03:05.286Z,76
2023-11-24T13:04:13.803Z,76
2023-11-24T13:05:19.892Z,76
2023-11-24T13:06:25.996Z,75
2023-11-24T13:07:33.209Z,75
2023-11-24T13:08:40.213Z,75
2023-11-24T13:09:47.401Z,75
2023-11-24T13:10:54.561Z,75
2023-11-24T13:12:09.965Z,75
2023-11-24T13:13:08.106Z,75
2023-11-24T13:14:15.223Z,75
2023-11-24T13:15:22.431Z,74
2023-11-24T13:16:29.594Z,75
2023-11-24T13:17:36.098Z,75
2023-11-24T13:18:43.165Z,75
2023-11-24T13:19:50.196Z,75
2023-11-24T13:20:57.365Z,75
2023-11-24T13:22:04.499Z,75
2023-11-24T13:23:11.024Z,74
2023-11-24T13:24:18.137Z,74
2023-11-24T13:25:25.286Z,74
2023-11-24T13:26:32.362Z,74
2023-11-24T13:27:39.475Z,74
2023-11-24T13:28:46.801Z,74
2023-11-24T13:29:53.172Z,74
2023-11-24T13:31:00.301Z,74
2023-11-24T13:32:07.376Z,74
2023-11-24T13:33:14.514Z,74
2023-11-24T13:34:21.142Z,74
2023-11-24T13:35:28.112Z,74
2023-11-24T13:36:35.224Z,74
2023-11-24T13:37:42.497Z,74
2023-11-24T13:38:51.612Z,74
2023-11-24T13:39:56.093Z,74
2023-11-24T13:41:03.197Z,74
2023-11-24T13:42:10.247Z,74
2023-11-24T13:43:17.480Z,74
2023-11-24T13:44:24.486Z,74
2023-11-24T13:45:32.488Z,74
2023-11-24T13:46:38.195Z,74
2023-11-24T13:47:45.338Z,74
2023-11-24T13:48:53.485Z,74
2023-11-24T13:49:59.465Z,74
2023-11-24T13:51:06.047Z,74
2023-11-24T13:52:13.244Z,74
2023-11-24T13:53:20.232Z,74
2023-11-24T13:54:27.435Z,74
2023-11-24T13:56:41.071Z,74
2023-11-24T13:57:49.609Z,74
2023-11-24T13:58:55.272Z,74
2023-11-24T14:00:02.426Z,74
2023-11-24T14:02:16.118Z,74
2023-11-24T14:03:23.396Z,74
2023-11-24T14:04:30.333Z,74
2023-11-24T14:05:37.410Z,74
2023-11-24T14:06:44.649Z,75
2023-11-24T14:07:51.077Z,75
2023-11-24T14:08:58.174Z,75
2023-11-24T14:10:05.340Z,75
2023-11-24T14:11:12.509Z,75
2023-11-24T14:12:18.966Z,75
2023-11-24T14:13:26.127Z,75
2023-11-24T14:14:33.279Z,75
2023-11-24T14:15:40.279Z,75
2023-11-24T14:16:47.591Z,75
2023-11-24T14:17:54.046Z,75
2023-11-24T14:19:01.178Z,75
2023-11-24T14:20:08.257Z,75
2023-11-24T14:21:15.345Z,75
2023-11-24T14:22:22.564Z,75
2023-11-24T14:23:29.016Z,75
2023-11-24T14:24:36.132Z,75
2023-11-24T14:25:43.226Z,75
2023-11-24T14:26:50.326Z,74
2023-11-24T14:27:57.450Z,74
2023-11-24T14:29:04.045Z,74
2023-11-24T14:30:11.144Z,74
2023-11-24T14:31:18.306Z,74
2023-11-24T14:32:25.391Z,74
2023-11-24T14:33:32.456Z,74
2023-11-24T14:34:39.007Z,74
2023-11-24T14:35:46.156Z,74
2023-11-24T14:36:53.262Z,74
2023-11-24T14:38:00.328Z,74
2023-11-24T14:39:07.400Z,74
2023-11-24T14:40:15.268Z,74
2023-11-24T14:41:21.132Z,74
2023-11-24T14:42:28.201Z,74
2023-11-24T14:43:35.454Z,74
2023-11-24T14:44:42.482Z,74
2023-11-24T14:45:49.054Z,75
2023-11-24T14:46:56.245Z,75
2023-11-24T14:48:03.318Z,75
2023-11-24T14:49:10.393Z,75
2023-11-24T14:50:17.470Z,75
2023-11-24T14:51:24.062Z,75
2023-11-24T14:52:31.209Z,75
2023-11-24T14:53:38.288Z,75
2023-11-24T14:54:45.428Z,76
2023-11-24T14:55:52.474Z,76
2023-11-24T14:56:59.049Z,76
2023-11-24T14:58:06.186Z,76
2023-11-24T14:59:13.359Z,76
2023-11-24T15:00:20.343Z,76
2023-11-24T15:01:27.507Z,76
2023-11-24T15:02:34.191Z,76
2023-11-24T15:03:41.198Z,76
2023-11-24T15:05:55.446Z,76
2023-11-24T15:07:02.656Z,76
2023-11-24T15:08:09.092Z,76
2023-11-24T15:09:16.171Z,76
2023-11-24T15:10:23.284Z,76
2023-11-24T15:11:30.488Z,76
2023-11-24T15:12:37.471Z,76
2023-11-24T15:13:44.080Z,76
2023-11-24T15:14:51.199Z,76
2023-11-24T15:15:58.324Z,76
2023-11-24T15:17:06.442Z,76
2023-11-24T15:18:12.580Z,76
2023-11-24T15:19:19.149Z,76
2023-11-24T15:20:27.722Z,76
2023-11-24T15:21:33.293Z,76
2023-11-24T15:22:40.399Z,76
2023-11-24T15:24:54.671Z,77
2023-11-24T15:26:01.192Z,77
2023-11-24T15:27:08.281Z,77
2023-11-24T15:28:17.311Z,77
2023-11-24T15:29:22.548Z,77
2023-11-24T15:30:29.062Z,77
2023-11-24T15:31:36.274Z,77
2023-11-24T15:32:43.400Z,77
2023-11-24T15:33:50.431Z,77
2023-11-24T15:34:57.511Z,77
2023-11-24T15:36:04.197Z,77
2023-11-24T15:37:11.230Z,77
2023-11-24T15:38:18.270Z,78
2023-11-24T15:39:25.431Z,78
2023-11-24T15:40:32.549Z,78
2023-11-24T15:41:39.238Z,78
2023-11-24T15:42:46.358Z,78
2023-11-24T15:43:53.326Z,78
2023-11-24T15:45:00.520Z,78
2023-11-24T15:46:07.082Z,78
2023-11-24T15:47:14.317Z,78
2023-11-24T15:48:21.321Z,78
2023-11-24T15:49:28.362Z,78
2023-11-24T15:50:35.507Z,78
2023-11-24T15:51:42.059Z,78
2023-11-24T15:52:49.210Z,78
2023-11-24T15:53:56.269Z,78
2023-11-24T15:55:03.370Z,78
2023-11-24T15:56:10.463Z,78
2023-11-24T15:57:17.063Z,78
2023-11-24T15:58:24.527Z,78
2023-11-24T15:59:31.219Z,78
2023-11-24T16:00:38.330Z,79
2023-11-24T16:01:45.780Z,79
2023-11-24T16:02:52.617Z,79
2023-11-24T16:03:59.308Z,79
2023-11-24T16:05:06.295Z,79
2023-11-24T16:06:13.422Z,79
2023-11-24T16:07:20.523Z,79
2023-11-24T16:09:34.289Z,79
2023-11-24T16:10:42.999Z,79
2023-11-24T16:11:48.330Z,79
2023-11-24T16:12:55.543Z,79
2023-11-24T16:14:02.137Z,80
2023-11-24T16:15:09.209Z,80
2023-11-24T16:16:16.339Z,80
2023-11-24T16:17:23.457Z,80
2023-11-24T16:18:35.363Z,80
2023-11-24T16:19:37.247Z,80
2023-11-24T16:20:44.252Z,80
2023-11-24T16:21:51.314Z,80
2023-11-24T16:22:58.388Z,80